Time;durP1;ratioP1;P1;durP2;ratioP2;P2;SDS_P1;SDS_P2;PMS_P1;PMS_P2;Temp;Humidity;BMP_temperature;BMP_pressure;BME280_temperature;BME280_humidity;BME280_pressure;Samples;Min_cycle;Max_cycle;Signal;HPM_P1;HPM_P2
2021/03/20 00:00:16;;;;;;;2.75;2.38;;;;;;;;;;5074836;28;20070;-14
2021/03/20 00:02:42;;;;;;;2.13;1.58;;;;;;;;;;5074984;28;20086;-14
2021/03/20 00:05:07;;;;;;;3.10;2.13;;;;;;;;;;5075112;28;20459;-14
2021/03/20 00:07:33;;;;;;;3.03;2.20;;;;;;;;;;5073393;28;20039;-14
2021/03/20 00:09:58;;;;;;;5.65;2.72;;;;;;;;;;5074795;28;20099;-14
2021/03/20 00:12:24;;;;;;;5.35;2.70;;;;;;;;;;5073274;28;20028;-14
2021/03/20 00:14:49;;;;;;;4.38;2.50;;;;;;;;;;5074822;28;20028;-13
2021/03/20 00:17:14;;;;;;;3.47;2.28;;;;;;;;;;5074503;28;20484;-14
2021/03/20 00:19:40;;;;;;;2.88;1.95;;;;;;;;;;5074549;28;20395;-14
2021/03/20 00:22:05;;;;;;;4.40;2.28;;;;;;;;;;5074310;28;20040;-14
2021/03/20 00:24:30;;;;;;;3.50;2.40;;;;;;;;;;5074760;28;20453;-15
2021/03/20 00:26:56;;;;;;;5.75;2.75;;;;;;;;;;5074708;28;20033;-14
2021/03/20 00:29:21;;;;;;;5.43;2.53;;;;;;;;;;5072929;28;20521;-14
2021/03/20 00:31:46;;;;;;;3.65;2.78;;;;;;;;;;5074533;28;20075;-14
2021/03/20 00:34:12;;;;;;;4.88;3.40;;;;;;;;;;5072807;28;20386;-15
2021/03/20 00:36:37;;;;;;;6.47;2.45;;;;;;;;;;5074194;28;20025;-14
2021/03/20 00:39:06;;;;;;;5.00;2.95;;;;;;;;;;5074146;28;20028;-13
2021/03/20 00:41:32;;;;;;;4.32;2.47;;;;;;;;;;5074090;28;20024;-14
2021/03/20 00:43:57;;;;;;;10.23;4.80;;;;;;;;;;5074027;28;20486;-14
2021/03/20 00:46:22;;;;;;;13.73;5.97;;;;;;;;;;5074154;28;20025;-14
2021/03/20 00:48:48;;;;;;;3.75;2.17;;;;;;;;;;5073975;28;20463;-14
2021/03/20 00:51:13;;;;;;;5.93;3.15;;;;;;;;;;5073700;28;20029;-15
2021/03/20 00:53:38;;;;;;;8.65;4.65;;;;;;;;;;5073956;28;20036;-14
2021/03/20 00:56:04;;;;;;;5.18;3.00;;;;;;;;;;5073840;28;20027;-14
2021/03/20 00:58:29;;;;;;;4.88;2.60;;;;;;;;;;5073695;28;20024;-13
2021/03/20 01:01:24;;;;;;;4.30;2.90;;;;;;;;;;5073831;28;20029;-14
2021/03/20 01:03:50;;;;;;;4.90;3.05;;;;;;;;;;5056271;28;20041;-14
2021/03/20 01:06:20;;;;;;;6.78;2.90;;;;;;;;;;5073699;28;20108;-14
2021/03/20 01:08:46;;;;;;;4.07;2.55;;;;;;;;;;5073939;28;20419;-14
2021/03/20 01:11:12;;;;;;;5.07;2.95;;;;;;;;;;5073425;28;20020;-14
2021/03/20 01:13:38;;;;;;;5.13;3.03;;;;;;;;;;5073228;28;20490;-14
2021/03/20 01:16:03;;;;;;;4.45;2.78;;;;;;;;;;5073544;28;20091;-14
2021/03/20 01:18:28;;;;;;;8.05;3.60;;;;;;;;;;5072030;28;20062;-13
2021/03/20 01:20:54;;;;;;;3.83;2.70;;;;;;;;;;5073598;28;20451;-13
2021/03/20 01:23:19;;;;;;;5.63;2.80;;;;;;;;;;5073099;28;20045;-14
2021/03/20 01:25:44;;;;;;;6.15;3.05;;;;;;;;;;5072133;28;20436;-16
2021/03/20 01:28:10;;;;;;;5.75;3.17;;;;;;;;;;5073090;28;20040;-14
2021/03/20 01:30:37;;;;;;;3.50;2.28;;;;;;;;;;5071863;28;20037;-14
2021/03/20 01:33:03;;;;;;;3.22;1.75;;;;;;;;;;5073286;28;20436;-13
2021/03/20 01:35:29;;;;;;;3.90;2.42;;;;;;;;;;5072997;28;20013;-14
2021/03/20 01:37:54;;;;;;;4.95;2.42;;;;;;;;;;5073214;28;20090;-14
2021/03/20 01:40:25;;;;;;;2.63;1.83;;;;;;;;;;5072926;28;20490;-18
2021/03/20 01:42:50;;;;;;;4.68;2.13;;;;;;;;;;5073171;28;20423;-13
2021/03/20 01:45:18;;;;;;;6.07;2.28;;;;;;;;;;5072864;28;20020;-14
2021/03/20 01:47:47;;;;;;;4.97;2.22;;;;;;;;;;5072790;28;20035;-14
2021/03/20 01:50:15;;;;;;;2.95;2.22;;;;;;;;;;5072922;28;20020;-14
2021/03/20 01:52:42;;;;;;;3.78;2.28;;;;;;;;;;5072706;28;20115;-14
2021/03/20 01:55:13;;;;;;;5.13;2.35;;;;;;;;;;5072564;28;20103;-14
2021/03/20 01:57:41;;;;;;;3.90;2.67;;;;;;;;;;5072712;28;20032;-14
2021/03/20 02:00:09;;;;;;;3.95;2.25;;;;;;;;;;5071330;28;20020;-13
2021/03/20 02:02:37;;;;;;;5.32;3.20;;;;;;;;;;5072479;28;20029;-13
2021/03/20 02:05:03;;;;;;;5.13;2.65;;;;;;;;;;5072678;28;20012;-14
2021/03/20 02:07:28;;;;;;;3.90;2.53;;;;;;;;;;5071203;28;20040;-14
2021/03/20 02:09:54;;;;;;;2.80;2.20;;;;;;;;;;5072714;28;20047;-15
2021/03/20 02:12:21;;;;;;;4.57;2.22;;;;;;;;;;5071848;28;20108;-15
2021/03/20 02:14:52;;;;;;;3.65;2.47;;;;;;;;;;5072411;28;20028;-14
2021/03/20 02:17:44;;;;;;;4.50;2.83;;;;;;;;;;5072358;28;20028;-13
2021/03/20 02:20:28;;;;;;;4.72;2.90;;;;;;;;;;5033187;28;20495;-14
2021/03/20 02:23:09;;;;;;;7.60;2.53;;;;;;;;;;5072136;28;20056;-14
2021/03/20 02:25:34;;;;;;;4.35;2.25;;;;;;;;;;5072309;28;20024;-14
2021/03/20 02:27:59;;;;;;;3.15;2.42;;;;;;;;;;5072296;28;20028;-14
2021/03/20 02:30:45;;;;;;;3.83;1.98;;;;;;;;;;5072511;28;20056;-14
2021/03/20 02:33:10;;;;;;;6.85;2.80;;;;;;;;;;5071635;28;20059;-14
2021/03/20 02:35:36;;;;;;;3.08;1.95;;;;;;;;;;5072541;28;20099;-15
2021/03/20 02:38:07;;;;;;;3.85;2.35;;;;;;;;;;5072121;28;20524;-14
2021/03/20 02:40:40;;;;;;;3.33;2.38;;;;;;;;;;5072481;28;20442;-14
2021/03/20 02:43:05;;;;;;;;;;;;;;;;;;5072854;28;20103;-14
2021/03/20 02:45:34;;;;;;;3.50;2.03;;;;;;;;;;5072399;28;20538;-14
2021/03/20 02:47:59;;;;;;;3.88;2.30;;;;;;;;;;5072161;28;20029;-14
2021/03/20 02:50:34;;;;;;;2.85;1.90;;;;;;;;;;5072229;28;20025;-13
2021/03/20 02:53:12;;;;;;;3.50;2.20;;;;;;;;;;5071924;28;20043;-15
2021/03/20 02:55:43;;;;;;;3.85;2.38;;;;;;;;;;5072000;28;20032;-15
2021/03/20 02:58:08;;;;;;;6.70;3.00;;;;;;;;;;5071976;28;20067;-15
2021/03/20 03:00:42;;;;;;;3.40;2.15;;;;;;;;;;5072234;28;20052;-14
2021/03/20 03:03:09;;;;;;;6.15;2.42;;;;;;;;;;5070536;28;20468;-15
2021/03/20 03:05:40;;;;;;;4.05;2.38;;;;;;;;;;5070681;28;20012;-14
2021/03/20 03:08:09;;;;;;;3.90;2.40;;;;;;;;;;5054044;28;20021;-13
2021/03/20 03:10:37;;;;;;;6.43;2.40;;;;;;;;;;5072127;28;20020;-14
2021/03/20 03:13:08;;;;;;;5.38;2.47;;;;;;;;;;5071690;28;20597;-14
2021/03/20 03:15:35;;;;;;;5.63;2.70;;;;;;;;;;5072086;28;20031;-14
2021/03/20 03:18:09;;;;;;;5.57;2.60;;;;;;;;;;5072256;28;20021;-14
2021/03/20 03:20:41;;;;;;;7.57;3.30;;;;;;;;;;5071822;28;20024;-13
2021/03/20 03:23:10;;;;;;;4.60;2.55;;;;;;;;;;5074403;28;20048;-13
2021/03/20 03:25:37;;;;;;;10.63;3.40;;;;;;;;;;5076359;28;20032;-13
2021/03/20 03:28:05;;;;;;;4.70;3.13;;;;;;;;;;5076244;28;20097;-13
2021/03/20 03:30:30;;;;;;;5.18;3.08;;;;;;;;;;5075457;28;20013;-14
2021/03/20 03:33:16;;;;;;;3.53;2.30;;;;;;;;;;5075218;28;20036;-15
2021/03/20 03:35:43;;;;;;;5.88;2.90;;;;;;;;;;5073645;28;20098;-15
2021/03/20 03:38:31;;;;;;;4.20;2.40;;;;;;;;;;5075253;28;20020;-14
2021/03/20 03:41:02;;;;;;;4.90;2.70;;;;;;;;;;5075460;28;20043;-14
2021/03/20 03:43:27;;;;;;;4.45;2.40;;;;;;;;;;5075465;28;20430;-14
2021/03/20 03:45:53;;;;;;;6.03;3.05;;;;;;;;;;5075240;28;20494;-14
2021/03/20 03:48:20;;;;;;;5.40;2.90;;;;;;;;;;5075015;28;20066;-14
2021/03/20 03:50:46;;;;;;;5.97;2.63;;;;;;;;;;5075150;28;20025;-14
2021/03/20 03:53:11;;;;;;;4.25;2.70;;;;;;;;;;5075087;28;20085;-14
2021/03/20 03:55:38;;;;;;;4.15;2.60;;;;;;;;;;5073670;28;20119;-15
2021/03/20 03:58:24;;;;;;;4.97;2.78;;;;;;;;;;5075044;28;20020;-15
2021/03/20 04:00:56;;;;;;;5.40;2.83;;;;;;;;;;5074918;28;20024;-14
2021/03/20 04:03:37;;;;;;;5.22;3.42;;;;;;;;;;5074649;28;20024;-14
2021/03/20 04:06:09;;;;;;;5.50;2.83;;;;;;;;;;5074920;28;20060;-14
2021/03/20 04:08:40;;;;;;;2.83;2.15;;;;;;;;;;5075062;28;20028;-14
2021/03/20 04:11:11;;;;;;;6.25;2.80;;;;;;;;;;5074662;28;20123;-14
2021/03/20 04:13:39;;;;;;;3.60;2.63;;;;;;;;;;5073273;28;20475;-13
2021/03/20 04:16:10;;;;;;;3.80;2.45;;;;;;;;;;5074627;28;20073;-14
2021/03/20 04:18:41;;;;;;;3.63;2.00;;;;;;;;;;5073338;28;20111;-14
2021/03/20 04:21:25;;;;;;;4.18;2.70;;;;;;;;;;5074564;28;20021;-14
2021/03/20 04:24:04;;;;;;;3.53;2.70;;;;;;;;;;5074297;28;20514;-14
2021/03/20 04:26:43;;;;;;;4.95;2.95;;;;;;;;;;5073390;28;20055;-14
2021/03/20 04:29:16;;;;;;;3.70;2.55;;;;;;;;;;5074487;28;20529;-14
2021/03/20 04:31:41;;;;;;;;;;;;;;;;;;5074707;28;20051;-14
2021/03/20 04:34:28;;;;;;;4.75;2.50;;;;;;;;;;5074276;28;20355;-14
2021/03/20 04:37:00;;;;;;;4.85;2.17;;;;;;;;;;5074144;28;20020;-14
2021/03/20 04:39:26;;;;;;;5.50;2.30;;;;;;;;;;5072927;28;20423;-15
2021/03/20 04:41:52;;;;;;;6.03;2.40;;;;;;;;;;5074369;28;20031;-14
2021/03/20 04:44:19;;;;;;;3.13;2.50;;;;;;;;;;5074059;28;20103;-13
2021/03/20 04:46:45;;;;;;;5.68;3.25;;;;;;;;;;5074134;28;20181;-14
2021/03/20 04:49:29;;;;;;;3.45;2.10;;;;;;;;;;5072592;28;20036;-14
2021/03/20 04:52:08;;;;;;;3.45;2.63;;;;;;;;;;5074108;28;20020;-15
2021/03/20 04:54:34;;;;;;;3.08;2.25;;;;;;;;;;5073674;28;20051;-15
2021/03/20 04:57:19;;;;;;;5.03;2.20;;;;;;;;;;5073941;28;20017;-14
2021/03/20 04:59:48;;;;;;;7.45;2.92;;;;;;;;;;5032514;28;20045;-15
2021/03/20 05:02:15;;;;;;;3.63;2.42;;;;;;;;;;5073772;28;20012;-14
2021/03/20 05:04:43;;;;;;;7.15;3.67;;;;;;;;;;5074007;28;20040;-14
2021/03/20 05:07:09;;;;;;;5.28;2.42;;;;;;;;;;5073642;28;20027;-14
2021/03/20 05:09:34;;;;;;;3.65;2.40;;;;;;;;;;5073574;28;20111;-14
2021/03/20 05:12:23;;;;;;;3.20;2.08;;;;;;;;;;5072327;28;20020;-14
2021/03/20 05:14:52;;;;;;;4.22;2.35;;;;;;;;;;5073736;28;20383;-14
2021/03/20 05:17:19;;;;;;;4.32;2.90;;;;;;;;;;5073713;28;20043;-13
2021/03/20 05:19:44;;;;;;;4.50;2.70;;;;;;;;;;5073366;28;20115;-15
2021/03/20 05:22:20;;;;;;;3.10;2.05;;;;;;;;;;5073110;28;20543;-14
2021/03/20 05:24:47;;;;;;;6.95;2.28;;;;;;;;;;5073528;28;20029;-14
2021/03/20 05:27:16;;;;;;;3.65;2.35;;;;;;;;;;5073335;28;20063;-14
2021/03/20 05:29:42;;;;;;;3.85;2.65;;;;;;;;;;5073207;28;20032;-14
2021/03/20 05:32:08;;;;;;;4.93;2.53;;;;;;;;;;5073172;28;20016;-15
2021/03/20 05:34:37;;;;;;;5.47;2.30;;;;;;;;;;5073180;28;20036;-14
2021/03/20 05:37:04;;;;;;;4.20;2.35;;;;;;;;;;5073037;28;20024;-15
2021/03/20 05:39:29;;;;;;;4.25;2.45;;;;;;;;;;5072998;28;20035;-14
2021/03/20 05:42:17;;;;;;;3.58;2.13;;;;;;;;;;5072789;28;20017;-15
2021/03/20 05:44:43;;;;;;;5.07;2.45;;;;;;;;;;5072984;28;20025;-15
2021/03/20 05:47:11;;;;;;;2.83;2.40;;;;;;;;;;5072353;28;20474;-15
2021/03/20 05:49:48;;;;;;;4.43;2.42;;;;;;;;;;5071443;28;20395;-18
2021/03/20 05:52:17;;;;;;;4.68;2.50;;;;;;;;;;5072920;28;20461;-14
2021/03/20 05:54:42;;;;;;;4.97;2.63;;;;;;;;;;5072573;28;20032;-15
2021/03/20 05:57:13;;;;;;;5.82;2.72;;;;;;;;;;5072691;28;20036;-15
2021/03/20 05:59:39;;;;;;;6.80;3.05;;;;;;;;;;5073019;28;20122;-15
2021/03/20 06:02:23;;;;;;;15.10;3.95;;;;;;;;;;5072572;28;20117;-15
2021/03/20 06:04:53;;;;;;;4.25;2.15;;;;;;;;;;5072638;28;20032;-14
2021/03/20 06:07:37;;;;;;;6.70;3.03;;;;;;;;;;5072464;28;20040;-15
2021/03/20 06:10:11;;;;;;;4.82;2.70;;;;;;;;;;5072813;28;20048;-14
2021/03/20 06:12:52;;;;;;;5.40;3.28;;;;;;;;;;5072482;28;20379;-14
2021/03/20 06:15:22;;;;;;;4.20;2.40;;;;;;;;;;5072746;28;20039;-14
2021/03/20 06:17:47;;;;;;;6.93;3.42;;;;;;;;;;5072680;28;20387;-15
2021/03/20 06:20:31;;;;;;;4.22;2.35;;;;;;;;;;5072386;28;20036;-14
2021/03/20 06:23:07;;;;;;;11.20;3.10;;;;;;;;;;5072368;28;20060;-15
2021/03/20 06:25:55;;;;;;;3.80;2.78;;;;;;;;;;5070906;28;20502;-14
2021/03/20 06:28:23;;;;;;;8.07;3.22;;;;;;;;;;5072362;28;20020;-15
2021/03/20 06:30:50;;;;;;;11.82;5.38;;;;;;;;;;5070965;28;20016;-14
2021/03/20 06:33:28;;;;;;;4.45;2.45;;;;;;;;;;5072089;28;20024;-15
2021/03/20 06:35:57;;;;;;;3.95;1.98;;;;;;;;;;5072548;28;20032;-15
2021/03/20 06:38:26;;;;;;;2.20;1.52;;;;;;;;;;5072321;28;20023;-14
2021/03/20 06:40:55;;;;;;;4.82;2.80;;;;;;;;;;5072210;28;20056;-13
2021/03/20 06:43:23;;;;;;;5.05;2.58;;;;;;;;;;5072395;28;20028;-14
2021/03/20 06:45:49;;;;;;;3.50;2.47;;;;;;;;;;5072444;28;20375;-13
2021/03/20 06:48:18;;;;;;;6.10;2.85;;;;;;;;;;5067930;28;20017;-13
2021/03/20 06:50:45;;;;;;;3.88;2.58;;;;;;;;;;5064950;28;20033;-14
2021/03/20 06:53:11;;;;;;;5.18;2.83;;;;;;;;;;5066117;28;20024;-15
2021/03/20 06:56:03;;;;;;;2.03;1.23;;;;;;;;;;5069269;28;20064;-14
2021/03/20 06:58:33;;;;;;;4.68;2.90;;;;;;;;;;5063337;28;20117;-14
2021/03/20 07:01:00;;;;;;;2.80;1.88;;;;;;;;;;5056275;28;20100;-14
2021/03/20 07:03:44;;;;;;;4.70;2.20;;;;;;;;;;5055831;28;20029;-14
2021/03/20 07:06:13;;;;;;;5.38;2.83;;;;;;;;;;5056285;28;20025;-15
2021/03/20 07:08:44;;;;;;;4.78;2.78;;;;;;;;;;5071143;28;20017;-15
2021/03/20 07:11:33;;;;;;;1.03;0.77;;;;;;;;;;4722263;28;9999833;-14
2021/03/20 07:14:03;;;;;;;9.60;0.70;;;;;;;;;;5063709;28;20380;-13
2021/03/20 07:16:31;;;;;;;2.53;1.52;;;;;;;;;;5072928;28;20024;-16
2021/03/20 07:19:11;;;;;;;1.90;1.30;;;;;;;;;;5073491;28;20021;-16
2021/03/20 07:21:39;;;;;;;3.67;2.28;;;;;;;;;;5072994;28;20430;-16
2021/03/20 07:24:04;;;;;;;6.60;3.45;;;;;;;;;;5073792;28;20032;-16
2021/03/20 07:26:32;;;;;;;5.03;3.45;;;;;;;;;;5075556;28;20040;-15
2021/03/20 07:28:59;;;;;;;5.03;3.63;;;;;;;;;;5074382;28;20417;-15
2021/03/20 07:31:25;;;;;;;7.82;4.00;;;;;;;;;;5071887;28;20020;-12
2021/03/20 07:33:52;;;;;;;3.15;2.33;;;;;;;;;;5071507;28;20051;-13
2021/03/20 07:36:35;;;;;;;7.45;5.18;;;;;;;;;;5071476;28;20028;-13
2021/03/20 07:39:10;;;;;;;5.80;4.15;;;;;;;;;;5071879;28;20040;-13
2021/03/20 07:41:44;;;;;;;9.32;4.43;;;;;;;;;;5072034;28;20033;-14
2021/03/20 07:44:10;;;;;;;20.60;17.95;;;;;;;;;;5071926;28;20036;-17
2021/03/20 07:46:35;;;;;;;36.15;31.83;;;;;;;;;;5071982;28;20027;-13
2021/03/20 07:49:02;;;;;;;16.83;13.23;;;;;;;;;;5071604;28;20060;-14
2021/03/20 07:51:28;;;;;;;18.23;14.85;;;;;;;;;;5064923;28;20021;-13
2021/03/20 07:53:54;;;;;;;7.80;6.65;;;;;;;;;;5063830;28;20091;-14
2021/03/20 07:56:36;;;;;;;7.45;4.03;;;;;;;;;;5051262;28;20017;-13
2021/03/20 07:59:12;;;;;;;4.65;3.40;;;;;;;;;;5050921;28;20041;-14
2021/03/20 08:01:39;;;;;;;3.58;2.60;;;;;;;;;;5050883;28;20033;-14
2021/03/20 08:04:09;;;;;;;5.85;3.10;;;;;;;;;;5050051;28;20028;-14
2021/03/20 08:06:35;;;;;;;5.80;4.18;;;;;;;;;;5051686;28;20534;-14
2021/03/20 08:09:19;;;;;;;7.47;4.65;;;;;;;;;;5051670;28;20029;-14
2021/03/20 08:11:45;;;;;;;5.93;3.38;;;;;;;;;;5068299;28;20047;-13
2021/03/20 08:14:14;;;;;;;4.70;3.40;;;;;;;;;;5091578;28;20059;-13
2021/03/20 08:16:41;;;;;;;2.60;1.58;;;;;;;;;;5091973;28;20035;-13
2021/03/20 08:19:10;;;;;;;3.15;2.55;;;;;;;;;;5091228;28;20017;-14
2021/03/20 08:21:36;;;;;;;6.25;3.30;;;;;;;;;;5091291;28;20425;-14
2021/03/20 08:24:17;;;;;;;5.10;3.40;;;;;;;;;;5091430;28;20059;-14
2021/03/20 08:26:46;;;;;;;6.50;4.05;;;;;;;;;;5091313;28;20036;-13
2021/03/20 08:29:11;;;;;;;4.97;3.03;;;;;;;;;;5091302;28;20546;-14
2021/03/20 08:32:03;;;;;;;5.05;3.67;;;;;;;;;;5090471;28;20101;-14
2021/03/20 08:34:40;;;;;;;2.80;1.92;;;;;;;;;;5067072;28;20125;-14
2021/03/20 08:37:24;;;;;;;3.25;2.42;;;;;;;;;;5090990;28;20036;-13
2021/03/20 08:40:07;;;;;;;0.77;0.73;;;;;;;;;;5090967;28;20032;-14
2021/03/20 08:42:36;;;;;;;4.25;3.03;;;;;;;;;;5090733;28;20034;-13
2021/03/20 08:45:11;;;;;;;3.67;3.25;;;;;;;;;;5090776;28;20054;-14
2021/03/20 08:47:40;;;;;;;4.78;2.95;;;;;;;;;;5090667;28;20479;-14
2021/03/20 08:50:11;;;;;;;4.50;2.75;;;;;;;;;;5058270;28;20021;-14
2021/03/20 08:52:48;;;;;;;4.65;3.00;;;;;;;;;;5067186;28;20492;-14
2021/03/20 08:55:23;;;;;;;4.00;2.92;;;;;;;;;;5068303;28;20032;-14
2021/03/20 08:57:55;;;;;;;4.63;2.50;;;;;;;;;;5069578;28;20036;-14
2021/03/20 09:00:28;;;;;;;4.10;2.55;;;;;;;;;;5065184;28;20056;-14
2021/03/20 09:02:55;;;;;;;5.43;2.95;;;;;;;;;;5070429;28;20115;-13
2021/03/20 09:05:20;;;;;;;2.10;1.35;;;;;;;;;;5070457;28;20028;-14
2021/03/20 09:07:55;;;;;;;4.53;3.47;;;;;;;;;;5070737;28;20352;-13
2021/03/20 09:10:29;;;;;;;4.47;3.05;;;;;;;;;;5069987;28;20028;-14
2021/03/20 09:13:01;;;;;;;12.73;6.07;;;;;;;;;;5087187;28;20509;-13
2021/03/20 09:15:28;;;;;;;4.05;3.13;;;;;;;;;;5088735;28;20035;-13
2021/03/20 09:17:56;;;;;;;5.28;2.80;;;;;;;;;;5089014;28;20038;-14
2021/03/20 09:20:24;;;;;;;4.15;3.10;;;;;;;;;;5070096;28;20032;-13
2021/03/20 09:22:51;;;;;;;5.22;2.33;;;;;;;;;;5069297;28;20041;-14
2021/03/20 09:25:37;;;;;;;3.55;1.55;;;;;;;;;;5068700;28;20033;-13
2021/03/20 09:28:16;;;;;;;2.97;1.85;;;;;;;;;;5062132;28;20033;-15
2021/03/20 09:30:41;;;;;;;4.07;2.00;;;;;;;;;;5068840;28;20036;-12
2021/03/20 09:33:14;;;;;;;2.50;1.70;;;;;;;;;;5069659;28;20658;-14
2021/03/20 09:35:40;;;;;;;3.97;2.80;;;;;;;;;;5069040;28;20589;-14
2021/03/20 09:38:06;;;;;;;8.02;2.95;;;;;;;;;;5069586;28;20020;-13
2021/03/20 09:40:39;;;;;;;4.28;2.65;;;;;;;;;;5069738;28;20094;-13
2021/03/20 09:43:23;;;;;;;11.18;5.60;;;;;;;;;;5069570;28;20059;-13
2021/03/20 09:46:08;;;;;;;8.32;3.85;;;;;;;;;;5069732;28;20028;-14
2021/03/20 09:48:42;;;;;;;3.47;2.55;;;;;;;;;;5069303;28;20534;-14
2021/03/20 09:51:26;;;;;;;1.15;0.68;;;;;;;;;;5069464;28;20039;-14
2021/03/20 09:53:51;;;;;;;4.30;2.33;;;;;;;;;;5069704;28;20051;-14
2021/03/20 09:56:28;;;;;;;3.28;2.20;;;;;;;;;;5069404;28;20021;-14
2021/03/20 09:58:54;;;;;;;2.38;1.50;;;;;;;;;;5053689;28;20032;-14
2021/03/20 10:01:19;;;;;;;2.47;1.73;;;;;;;;;;5067675;28;20020;-13
2021/03/20 10:03:52;;;;;;;3.83;2.10;;;;;;;;;;5069499;28;20036;-13
2021/03/20 10:06:30;;;;;;;2.67;1.60;;;;;;;;;;5069196;28;20040;-13
2021/03/20 10:09:07;;;;;;;2.55;1.63;;;;;;;;;;5069319;28;20036;-13
2021/03/20 10:11:38;;;;;;;2.45;1.35;;;;;;;;;;5075396;28;20024;-13
2021/03/20 10:14:21;;;;;;;5.13;3.08;;;;;;;;;;5089284;28;20075;-12
2021/03/20 10:17:02;;;;;;;2.53;1.52;;;;;;;;;;5089517;28;20039;-12
2021/03/20 10:19:33;;;;;;;1.98;1.70;;;;;;;;;;5089050;28;20525;-14
2021/03/20 10:22:00;;;;;;;2.13;1.83;;;;;;;;;;5089028;28;20035;-14
2021/03/20 10:24:26;;;;;;;3.05;2.65;;;;;;;;;;5088830;28;20105;-14
2021/03/20 10:26:58;;;;;;;3.33;2.42;;;;;;;;;;5089255;28;20078;-14
2021/03/20 10:29:25;;;;;;;2.38;1.80;;;;;;;;;;5089699;28;20063;-13
2021/03/20 10:31:53;;;;;;;3.15;2.33;;;;;;;;;;5089085;28;20062;-13
2021/03/20 10:34:23;;;;;;;2.42;1.98;;;;;;;;;;5088488;28;20079;-13
2021/03/20 10:37:01;;;;;;;2.60;1.55;;;;;;;;;;5088756;28;20028;-14
2021/03/20 10:39:41;;;;;;;2.78;1.70;;;;;;;;;;5088865;28;20454;-14
2021/03/20 10:42:15;;;;;;;2.38;2.00;;;;;;;;;;5060336;28;20749;-13
2021/03/20 10:44:40;;;;;;;;;;;;;;;;;;5049208;28;20417;-14
2021/03/20 10:47:08;;;;;;;0.50;0.50;;;;;;;;;;5064588;28;19931;-13
2021/03/20 10:49:39;;;;;;;2.05;1.02;;;;;;;;;;5067337;28;20542;-13
2021/03/20 10:52:10;;;;;;;3.28;2.08;;;;;;;;;;5063226;28;20410;-13
2021/03/20 10:55:02;;;;;;;2.75;1.73;;;;;;;;;;5049115;28;20037;-13
2021/03/20 10:57:29;;;;;;;2.67;2.20;;;;;;;;;;5045613;28;20620;-13
2021/03/20 10:59:55;;;;;;;1.83;1.27;;;;;;;;;;5048313;28;20017;-13
2021/03/20 11:02:22;;;;;;;3.88;1.50;;;;;;;;;;5048092;28;20511;-12
2021/03/20 11:04:47;;;;;;;1.73;1.27;;;;;;;;;;5048495;28;20460;-13
2021/03/20 11:07:15;;;;;;;2.92;2.17;;;;;;;;;;5048171;28;20087;-14
2021/03/20 11:09:41;;;;;;;0.30;0.30;;;;;;;;;;5048433;28;20206;-13
2021/03/20 11:12:10;;;;;;;2.15;1.80;;;;;;;;;;5068600;28;20293;-13
2021/03/20 11:14:49;;;;;;;1.10;0.90;;;;;;;;;;5062763;28;20071;-13
2021/03/20 11:17:20;;;;;;;2.85;2.05;;;;;;;;;;5072187;28;20028;-13
2021/03/20 11:19:47;;;;;;;2.92;1.60;;;;;;;;;;5088904;28;20040;-13
2021/03/20 11:22:23;;;;;;;1.60;1.20;;;;;;;;;;5088076;28;20035;-12
2021/03/20 11:24:56;;;;;;;1.95;1.15;;;;;;;;;;5088133;28;20111;-13
2021/03/20 11:27:23;;;;;;;2.17;1.08;;;;;;;;;;5088783;28;20028;-14
2021/03/20 11:29:51;;;;;;;3.35;2.00;;;;;;;;;;5088589;28;20094;-13
2021/03/20 11:32:20;;;;;;;3.90;2.97;;;;;;;;;;5088956;28;20435;-13
2021/03/20 11:34:49;;;;;;;4.45;3.25;;;;;;;;;;5089316;28;20043;-14
2021/03/20 11:37:25;;;;;;;2.70;2.13;;;;;;;;;;5082740;28;20032;-14
2021/03/20 11:39:57;;;;;;;2.95;2.53;;;;;;;;;;5062241;28;20028;-13
2021/03/20 11:42:25;;;;;;;3.25;2.45;;;;;;;;;;5068198;28;20029;-13
2021/03/20 11:44:51;;;;;;;3.20;2.55;;;;;;;;;;5059633;28;20135;-14
2021/03/20 11:47:23;;;;;;;2.63;2.25;;;;;;;;;;5060560;28;20032;-13
2021/03/20 11:49:50;;;;;;;1.58;1.45;;;;;;;;;;5071675;28;20033;-15
2021/03/20 11:52:19;;;;;;;2.45;1.75;;;;;;;;;;5067770;28;20031;-13
2021/03/20 11:54:45;;;;;;;3.53;2.72;;;;;;;;;;5057133;28;20386;-15
2021/03/20 11:57:10;;;;;;;2.92;2.20;;;;;;;;;;5050114;28;20028;-13
2021/03/20 11:59:41;;;;;;;15.65;1.98;;;;;;;;;;5053492;28;20032;-14
2021/03/20 12:02:10;;;;;;;2.08;1.60;;;;;;;;;;5060237;28;20057;-14
2021/03/20 12:04:35;;;;;;;2.13;1.70;;;;;;;;;;5051576;28;20071;-15
2021/03/20 12:07:21;;;;;;;2.60;2.00;;;;;;;;;;5054253;28;20174;-15
2021/03/20 12:09:46;;;;;;;1.92;1.73;;;;;;;;;;5053701;28;20039;-13
2021/03/20 12:12:12;;;;;;;2.92;1.70;;;;;;;;;;5072069;28;20039;-15
2021/03/20 12:14:39;;;;;;;3.72;2.13;;;;;;;;;;5071032;28;20045;-13
2021/03/20 12:17:19;;;;;;;3.90;1.33;;;;;;;;;;5071076;28;20051;-15
2021/03/20 12:19:50;;;;;;;3.75;1.67;;;;;;;;;;5069540;28;20515;-14
2021/03/20 12:22:17;;;;;;;3.35;1.73;;;;;;;;;;5070625;28;20491;-14
2021/03/20 12:24:43;;;;;;;2.50;2.03;;;;;;;;;;5070555;28;20032;-15
2021/03/20 12:27:21;;;;;;;3.03;1.67;;;;;;;;;;5071114;28;20037;-15
2021/03/20 12:29:47;;;;;;;2.90;2.00;;;;;;;;;;5069500;28;20036;-14
2021/03/20 12:32:24;;;;;;;1.95;1.50;;;;;;;;;;5071080;28;20031;-15
2021/03/20 12:34:50;;;;;;;2.03;1.77;;;;;;;;;;5069411;28;20086;-14
2021/03/20 12:37:17;;;;;;;2.08;1.58;;;;;;;;;;5071004;28;20458;-16
2021/03/20 12:39:42;;;;;;;3.25;2.00;;;;;;;;;;5071055;28;20641;-15
2021/03/20 12:42:11;;;;;;;3.05;2.28;;;;;;;;;;5071052;28;20027;-15
2021/03/20 12:44:40;;;;;;;2.78;1.90;;;;;;;;;;5071418;28;20067;-15
2021/03/20 12:47:06;;;;;;;2.00;1.80;;;;;;;;;;5070401;28;20020;-14
2021/03/20 12:49:36;;;;;;;3.45;2.00;;;;;;;;;;5070526;28;20032;-15
2021/03/20 12:52:16;;;;;;;2.95;2.05;;;;;;;;;;5070540;28;20064;-14
2021/03/20 12:54:44;;;;;;;4.00;2.58;;;;;;;;;;5070368;28;20037;-14
2021/03/20 12:57:18;;;;;;;2.42;1.77;;;;;;;;;;5070049;28;20024;-14
2021/03/20 12:59:44;;;;;;;5.68;2.20;;;;;;;;;;5069981;28;20032;-14
2021/03/20 13:02:11;;;;;;;3.88;2.10;;;;;;;;;;5069770;28;20669;-13
2021/03/20 13:04:36;;;;;;;2.65;2.10;;;;;;;;;;5070276;28;20116;-15
2021/03/20 13:07:02;;;;;;;3.40;2.17;;;;;;;;;;5070138;28;20099;-14
2021/03/20 13:09:27;;;;;;;3.70;1.90;;;;;;;;;;5070414;28;20706;-13
2021/03/20 13:11:54;;;;;;;2.20;1.67;;;;;;;;;;5079436;28;20044;-14
2021/03/20 13:14:19;;;;;;;4.18;2.38;;;;;;;;;;5090175;28;20052;-15
2021/03/20 13:16:44;;;;;;;2.00;1.52;;;;;;;;;;5090167;28;20020;-15
2021/03/20 13:19:10;;;;;;;4.18;2.65;;;;;;;;;;5090287;28;20060;-14
2021/03/20 13:21:36;;;;;;;3.38;1.63;;;;;;;;;;5090114;28;20023;-15
2021/03/20 13:24:03;;;;;;;4.35;3.20;;;;;;;;;;5090319;28;20044;-15
2021/03/20 13:26:29;;;;;;;5.00;2.22;;;;;;;;;;5090156;28;20055;-15
2021/03/20 13:28:54;;;;;;;2.00;1.48;;;;;;;;;;5090020;28;20475;-15
2021/03/20 13:31:20;;;;;;;1.98;0.63;;;;;;;;;;5090289;28;20024;-14
2021/03/20 13:33:45;;;;;;;3.03;1.65;;;;;;;;;;5090000;28;20116;-14
2021/03/20 13:36:11;;;;;;;3.30;2.05;;;;;;;;;;5089657;28;20027;-15
2021/03/20 13:38:37;;;;;;;2.40;1.55;;;;;;;;;;5081288;28;20025;-14
2021/03/20 13:41:02;;;;;;;2.22;2.03;;;;;;;;;;5068103;28;20044;-12
2021/03/20 13:43:28;;;;;;;1.85;1.25;;;;;;;;;;5069689;28;20033;-13
2021/03/20 13:45:53;;;;;;;7.35;2.47;;;;;;;;;;5069593;28;20108;-15
2021/03/20 13:48:19;;;;;;;2.53;1.85;;;;;;;;;;5068878;28;20799;-14
2021/03/20 13:50:45;;;;;;;1.60;1.05;;;;;;;;;;5069348;28;20016;-13
2021/03/20 13:53:15;;;;;;;2.60;2.35;;;;;;;;;;5069242;28;20044;-14
2021/03/20 13:55:41;;;;;;;2.78;2.22;;;;;;;;;;5069566;28;20043;-13
2021/03/20 13:58:06;;;;;;;2.95;2.50;;;;;;;;;;5069172;28;20029;-14
2021/03/20 14:00:32;;;;;;;2.55;2.22;;;;;;;;;;5068217;28;20085;-13
2021/03/20 14:02:57;;;;;;;3.25;1.83;;;;;;;;;;5069225;28;20028;-15
2021/03/20 14:05:22;;;;;;;2.65;1.25;;;;;;;;;;5067914;28;20523;-14
2021/03/20 14:07:48;;;;;;;2.25;1.65;;;;;;;;;;5068663;28;20094;-13
2021/03/20 14:10:24;;;;;;;2.33;1.45;;;;;;;;;;5069242;28;20103;-15
2021/03/20 14:12:50;;;;;;;0.70;0.70;;;;;;;;;;5085335;28;20035;-15
2021/03/20 14:15:17;;;;;;;3.10;2.47;;;;;;;;;;5088974;28;20027;-15
2021/03/20 14:17:42;;;;;;;3.60;1.75;;;;;;;;;;5089710;28;20115;-14
2021/03/20 14:20:09;;;;;;;4.22;2.22;;;;;;;;;;5089204;28;20115;-14
2021/03/20 14:22:34;;;;;;;2.58;2.15;;;;;;;;;;5088804;28;20052;-13
2021/03/20 14:25:00;;;;;;;2.90;2.28;;;;;;;;;;5088945;28;20039;-15
2021/03/20 14:27:26;;;;;;;4.53;2.15;;;;;;;;;;5088779;28;20477;-13
2021/03/20 14:29:51;;;;;;;1.63;1.05;;;;;;;;;;5089099;28;20089;-15
2021/03/20 14:32:17;;;;;;;1.95;1.20;;;;;;;;;;5088876;28;20619;-14
2021/03/20 14:34:42;;;;;;;2.30;1.67;;;;;;;;;;5088673;28;20036;-12
2021/03/20 14:37:08;;;;;;;1.63;1.33;;;;;;;;;;5089009;28;20021;-13
2021/03/20 14:39:33;;;;;;;1.95;1.27;;;;;;;;;;5088943;28;20031;-14
2021/03/20 14:41:59;;;;;;;2.50;1.67;;;;;;;;;;5087569;28;20032;-13
2021/03/20 14:44:24;;;;;;;2.85;1.48;;;;;;;;;;5089018;28;20028;-13
2021/03/20 14:46:50;;;;;;;1.80;1.42;;;;;;;;;;5088802;28;20028;-13
2021/03/20 14:49:15;;;;;;;1.48;1.20;;;;;;;;;;5088904;28;20016;-14
2021/03/20 14:51:41;;;;;;;3.15;1.15;;;;;;;;;;5088796;28;20055;-13
2021/03/20 14:54:06;;;;;;;1.00;0.85;;;;;;;;;;5088542;28;20035;-14
2021/03/20 14:56:32;;;;;;;0.85;0.70;;;;;;;;;;5088819;28;20020;-14
2021/03/20 14:58:58;;;;;;;1.00;0.90;;;;;;;;;;5087009;28;20113;-14